Jose Boiteux, Brazil
Current Conditions -  °F | °C
As of 6:00 AM on Thursday 23 Oct 2014 (Local Time) from SBNF Reporting Station
Scattered Clouds Scattered Clouds  
Wind Chill: 63°   Ceiling: Unl
Heat Index: 63°   Visibility: 6mi
Dew Point: 57°   Wind: 6mph
Humidity: 82%   Direction: 260°W
Pressure: 30.12"   Gusts: NA
Location:  26.96°S, 49.63°W
Report Text: SBNF 230800Z 26005KT 9999 FEW012 SCT025 17/14 Q1020
Loading
Personal Weather Stations






























Interactive Weather Map
Tropical Storm Tracking
New forecast layout! Learn more

10-Day Weather Forecast

Advertisements
Track Severe Weather on mobile